createdAt,value
2018-08-24T00:05:23.350Z,6.30
2018-08-24T00:11:26.818Z,7.12
2018-08-24T00:17:31.226Z,8.15
2018-08-24T00:23:34.868Z,8.73
2018-08-24T00:29:38.209Z,9.33
2018-08-24T00:35:41.699Z,9.00
2018-08-24T00:41:46.867Z,8.10
2018-08-24T00:47:50.269Z,7.57
2018-08-24T00:53:53.749Z,7.73
2018-08-24T00:59:57.110Z,7.80
2018-08-24T01:06:01.261Z,9.13
2018-08-24T01:12:11.657Z,9.53
2018-08-24T01:18:18.771Z,8.97
2018-08-24T01:24:29.100Z,9.43
2018-08-24T01:30:32.803Z,10.10
2018-08-24T01:36:36.826Z,9.70
2018-08-24T01:42:40.267Z,11.03
2018-08-24T01:48:43.718Z,11.73
2018-08-24T01:54:47.358Z,11.90
2018-08-24T02:00:51.023Z,12.00
2018-08-24T02:06:54.581Z,13.30
2018-08-24T02:13:03.473Z,13.57
2018-08-24T02:19:12.552Z,14.20
2018-08-24T02:25:16.349Z,15.30
2018-08-24T02:31:20.238Z,15.53
2018-08-24T02:37:24.065Z,15.23
2018-08-24T02:43:27.592Z,19.53
2018-08-24T02:49:31.163Z,18.93
2018-08-24T02:55:35.082Z,18.10
2018-08-24T03:01:38.543Z,20.77
2018-08-24T03:07:42.190Z,20.40
2018-08-24T03:13:46.145Z,21.73
2018-08-24T03:19:49.810Z,21.40
2018-08-24T03:25:53.558Z,20.27
2018-08-24T03:31:56.911Z,20.37
2018-08-24T03:38:00.434Z,19.60
2018-08-24T03:44:04.217Z,18.73
2018-08-24T03:50:07.689Z,18.97
2018-08-24T03:56:11.360Z,17.63
2018-08-24T04:02:15.031Z,17.70
2018-08-24T04:08:18.476Z,18.73
2018-08-24T04:14:23.073Z,17.77
2018-08-24T04:20:26.563Z,16.77
2018-08-24T04:26:31.376Z,16.23
2018-08-24T04:32:34.971Z,15.93
2018-08-24T04:38:38.655Z,14.67
2018-08-24T04:44:41.915Z,13.83
2018-08-24T04:50:45.648Z,12.23
2018-08-24T04:56:49.430Z,11.43
2018-08-24T05:02:53.113Z,11.23
2018-08-24T05:08:56.616Z,10.00
2018-08-24T05:15:00.352Z,11.30
2018-08-24T05:21:04.187Z,12.00
2018-08-24T05:27:07.890Z,10.80
2018-08-24T05:33:12.341Z,12.37
2018-08-24T05:39:16.197Z,11.37
2018-08-24T05:45:19.583Z,11.77
2018-08-24T05:51:23.626Z,12.37
2018-08-24T05:57:27.266Z,12.00
2018-08-24T06:03:30.716Z,12.30
2018-08-24T06:09:34.421Z,14.40
2018-08-24T06:15:38.177Z,13.07
2018-08-24T06:21:42.041Z,15.63
2018-08-24T06:27:45.923Z,15.07
2018-08-24T06:33:50.671Z,13.60
2018-08-24T06:39:53.993Z,14.67
2018-08-24T06:45:57.665Z,16.77
2018-08-24T06:52:01.279Z,16.00
2018-08-24T06:58:04.928Z,17.50
2018-08-24T07:04:08.874Z,18.87
2018-08-24T07:10:12.803Z,18.27
2018-08-24T07:16:17.089Z,17.73
2018-08-24T07:22:20.450Z,17.90
2018-08-24T07:28:24.353Z,15.47
2018-08-24T07:34:27.932Z,17.43
2018-08-24T07:40:31.575Z,14.00
2018-08-24T07:46:35.120Z,13.87
2018-08-24T07:52:40.394Z,14.30
2018-08-24T07:58:44.936Z,13.57
2018-08-24T08:04:48.635Z,7.87
2018-08-24T08:10:52.613Z,7.17
2018-08-24T08:17:00.750Z,6.73
2018-08-24T08:23:11.661Z,7.37
2018-08-24T08:29:20.813Z,6.77
2018-08-24T08:35:24.346Z,7.27
2018-08-24T08:41:28.521Z,7.40
2018-08-24T08:47:33.079Z,6.60
2018-08-24T08:53:36.547Z,5.93
2018-08-24T08:59:40.358Z,5.57
2018-08-24T09:05:44.110Z,4.40
2018-08-24T09:11:48.376Z,4.20
2018-08-24T09:17:57.669Z,3.53
2018-08-24T09:24:06.486Z,4.10
2018-08-24T09:30:10.225Z,4.40
2018-08-24T09:36:22.733Z,4.43
2018-08-24T09:42:27.150Z,4.17
2018-08-24T09:48:35.160Z,4.67
2018-08-24T09:54:38.882Z,3.67
2018-08-24T10:00:48.081Z,3.03
2018-08-24T10:06:57.273Z,3.43
2018-08-24T10:13:00.975Z,2.80
2018-08-24T10:19:04.364Z,2.90
2018-08-24T10:25:08.043Z,2.33
2018-08-24T10:31:11.455Z,1.93
2018-08-24T10:37:15.348Z,2.17
2018-08-24T10:43:19.209Z,1.90
2018-08-24T10:49:22.637Z,2.03
2018-08-24T10:55:26.460Z,2.10
2018-08-24T11:01:30.204Z,2.00
2018-08-24T11:07:34.013Z,2.00
2018-08-24T11:13:38.551Z,2.03
2018-08-24T11:19:42.169Z,1.80
2018-08-24T11:25:45.690Z,1.70
2018-08-24T11:31:48.973Z,2.20
2018-08-24T11:37:52.274Z,1.95
2018-08-24T11:43:55.762Z,1.67
2018-08-24T11:49:59.057Z,1.67
2018-08-24T11:56:02.589Z,1.80
2018-08-24T12:02:06.100Z,1.40
2018-08-24T12:08:09.557Z,2.07
2018-08-24T12:14:13.038Z,2.50
2018-08-24T12:20:16.359Z,2.23
2018-08-24T12:26:20.350Z,1.80
2018-08-24T12:32:23.756Z,1.92
2018-08-24T12:38:27.257Z,1.80
2018-08-24T12:44:30.827Z,1.70
2018-08-24T12:50:34.507Z,1.50
2018-08-24T12:56:38.743Z,1.57
2018-08-24T13:02:42.621Z,1.43
2018-08-24T13:08:46.868Z,1.70
2018-08-24T13:14:50.239Z,1.98
2018-08-24T13:20:53.613Z,1.85
2018-08-24T13:26:56.972Z,1.95
2018-08-24T13:33:00.553Z,1.82
2018-08-24T13:39:06.698Z,1.75
2018-08-24T13:45:10.148Z,1.65
2018-08-24T13:51:13.611Z,1.40
2018-08-24T13:57:16.961Z,1.82
2018-08-24T14:03:20.522Z,1.80
2018-08-24T14:09:23.895Z,1.50
2018-08-24T14:15:27.876Z,1.62
2018-08-24T14:21:31.400Z,1.65
2018-08-24T14:27:36.016Z,1.95
2018-08-24T14:33:39.987Z,1.60
2018-08-24T14:39:43.631Z,1.40
2018-08-24T14:45:47.008Z,1.90
2018-08-24T14:51:50.922Z,1.30
2018-08-24T14:57:54.362Z,2.08
2018-08-24T15:03:57.977Z,1.72
2018-08-24T15:10:01.519Z,1.67
2018-08-24T15:16:04.957Z,1.67
2018-08-24T15:22:08.393Z,1.55
2018-08-24T15:28:11.759Z,1.22
2018-08-24T15:34:15.058Z,1.42
2018-08-24T15:40:18.394Z,1.60
2018-08-24T15:46:26.380Z,1.10
2018-08-24T15:52:30.011Z,1.10
2018-08-24T15:58:33.417Z,1.80
2018-08-24T16:04:36.929Z,1.33
2018-08-24T16:10:40.429Z,1.30
2018-08-24T16:16:43.893Z,1.50
2018-08-24T16:22:47.450Z,1.43
2018-08-24T16:28:51.103Z,1.90
2018-08-24T16:34:54.553Z,1.60
2018-08-24T16:40:58.022Z,1.40
2018-08-24T16:47:01.437Z,1.00
2018-08-24T16:53:04.750Z,1.20
2018-08-24T16:59:08.067Z,1.57
2018-08-24T17:05:11.413Z,1.30
2018-08-24T17:11:14.925Z,1.30
2018-08-24T17:17:19.267Z,1.33
2018-08-24T17:23:22.608Z,1.50
2018-08-24T17:29:26.046Z,1.73
2018-08-24T17:35:29.362Z,1.50
2018-08-24T17:41:32.782Z,1.47
2018-08-24T17:47:36.720Z,1.73
2018-08-24T17:53:40.041Z,1.47
2018-08-24T17:59:43.334Z,1.50
2018-08-24T18:05:46.730Z,1.40
2018-08-24T18:11:50.406Z,1.30
2018-08-24T18:17:53.678Z,1.40
2018-08-24T18:23:57.074Z,1.57
2018-08-24T18:30:00.552Z,1.40
2018-08-24T18:36:03.984Z,1.73
2018-08-24T18:42:07.389Z,1.57
2018-08-24T18:48:10.686Z,1.50
2018-08-24T18:54:14.061Z,1.90
2018-08-24T19:00:17.420Z,1.40
2018-08-24T19:06:21.042Z,1.73
2018-08-24T19:12:26.437Z,1.57
2018-08-24T19:18:36.307Z,1.43
2018-08-24T19:24:39.624Z,1.70
2018-08-24T19:30:43.176Z,1.60
2018-08-24T19:36:46.466Z,2.00
2018-08-24T19:42:49.729Z,1.70
2018-08-24T19:48:58.651Z,2.23
2018-08-24T19:55:02.662Z,2.00
2018-08-24T20:01:06.015Z,1.63
2018-08-24T20:07:15.668Z,1.90
2018-08-24T20:13:19.591Z,1.87
2018-08-24T20:19:23.158Z,1.83
2018-08-24T20:25:26.685Z,1.43
2018-08-24T20:31:30.136Z,1.77
2018-08-24T20:37:33.501Z,1.87
2018-08-24T20:43:37.104Z,2.00
2018-08-24T20:49:42.504Z,1.90
2018-08-24T20:55:45.948Z,1.60
2018-08-24T21:01:50.906Z,1.63
2018-08-24T21:07:54.475Z,1.67
2018-08-24T21:13:57.811Z,1.70
2018-08-24T21:20:01.353Z,1.40
2018-08-24T21:26:05.000Z,1.90
2018-08-24T21:32:08.535Z,1.90
2018-08-24T21:38:11.849Z,1.63
2018-08-24T21:44:15.198Z,1.50
2018-08-24T21:50:18.723Z,2.10
2018-08-24T21:56:22.256Z,1.97
2018-08-24T22:02:26.074Z,1.87
2018-08-24T22:08:30.197Z,1.70
2018-08-24T22:14:33.758Z,2.20
2018-08-24T22:20:37.464Z,2.37
2018-08-24T22:26:41.002Z,2.03
2018-08-24T22:32:44.673Z,2.30
2018-08-24T22:38:48.166Z,1.90
2018-08-24T22:44:51.714Z,1.90
2018-08-24T22:50:55.238Z,1.40
2018-08-24T22:56:58.828Z,2.23
2018-08-24T23:03:02.602Z,1.50
2018-08-24T23:09:08.798Z,1.30
2018-08-24T23:15:12.326Z,1.30
2018-08-24T23:21:16.331Z,1.50
2018-08-24T23:27:19.912Z,1.53
2018-08-24T23:33:23.746Z,1.00
2018-08-24T23:39:27.589Z,1.50
2018-08-24T23:45:30.882Z,1.60
2018-08-24T23:51:34.482Z,1.10
2018-08-24T23:57:38.110Z,1.37
